Time;durP1;ratioP1;P1;durP2;ratioP2;P2;SDS_P1;SDS_P2;PMS_P1;PMS_P2;Temp;Humidity;BMP_temperature;BMP_pressure;BME280_temperature;BME280_humidity;BME280_pressure;Samples;Min_cycle;Max_cycle;Signal;HPM_P1;HPM_P2
2021/12/21 00:01:56;;;;;;;23.27;11.57;;;-3.30;99.90;;;;;;6197024;23;20020;-92
2021/12/21 00:04:22;;;;;;;23.73;11.43;;;-3.20;99.90;;;;;;6203696;23;20016;-93
2021/12/21 00:06:48;;;;;;;26.20;11.07;;;-3.30;99.90;;;;;;6196764;23;20020;-93
2021/12/21 00:09:14;;;;;;;23.75;11.68;;;-3.40;99.90;;;;;;6221634;23;20016;-94
2021/12/21 00:11:40;;;;;;;27.00;9.77;;;-3.40;99.90;;;;;;6221532;23;20016;-93
2021/12/21 00:14:35;;;;;;;19.88;9.43;;;-3.40;99.90;;;;;;6196201;23;20020;-95
2021/12/21 00:22:11;;;;;;;25.90;8.88;;;-3.40;99.90;;;;;;6221583;23;20100;-93
2021/12/21 00:24:45;;;;;;;17.92;9.00;;;-3.30;99.90;;;;;;6196462;23;20024;-95
2021/12/21 00:27:13;;;;;;;17.25;7.95;;;-3.40;99.90;;;;;;6196434;23;20016;-94
2021/12/21 00:29:38;;;;;;;16.48;7.68;;;-3.30;99.90;;;;;;6196078;23;20016;-93
2021/12/21 00:32:05;;;;;;;18.55;7.00;;;-3.40;99.90;;;;;;6196173;23;20051;-94
2021/12/21 00:34:31;;;;;;;19.88;7.47;;;-3.60;99.90;;;;;;6196447;23;20051;-94
2021/12/21 00:36:57;;;;;;;18.35;7.28;;;-3.40;99.90;;;;;;6196294;23;20016;-93
2021/12/21 00:39:23;;;;;;;21.45;7.32;;;-3.50;99.90;;;;;;6221257;23;20023;-93
2021/12/21 00:41:49;;;;;;;15.07;7.10;;;-3.50;99.90;;;;;;6220855;23;20016;-92
2021/12/21 00:44:14;;;;;;;15.93;7.45;;;-3.10;99.90;;;;;;6195893;23;20016;-92
2021/12/21 00:46:40;;;;;;;21.45;6.85;;;-3.40;99.90;;;;;;6196209;23;20024;-92
2021/12/21 00:49:14;;;;;;;19.02;7.10;;;-3.50;99.90;;;;;;6195788;23;20015;-93
2021/12/21 00:51:42;;;;;;;18.85;7.20;;;-3.20;99.90;;;;;;6195738;23;20091;-91
2021/12/21 00:54:08;;;;;;;18.13;8.23;;;-3.40;99.90;;;;;;6195879;23;20016;-91
2021/12/21 00:56:34;;;;;;;27.73;9.82;;;-3.10;99.90;;;;;;6221027;23;20023;-92
2021/12/21 00:59:00;;;;;;;25.13;10.38;;;-3.50;99.90;;;;;;6220408;23;20012;-91
2021/12/21 01:01:25;;;;;;;22.05;8.40;;;-3.50;99.90;;;;;;6195591;23;20016;-92
2021/12/21 01:03:53;;;;;;;19.60;9.43;;;-3.40;99.90;;;;;;6195377;23;20016;-92
2021/12/21 01:06:28;;;;;;;18.63;8.50;;;-3.20;99.90;;;;;;6195806;23;20326;-92
2021/12/21 01:11:31;;;;;;;22.75;7.72;;;-3.60;99.90;;;;;;6220353;23;20462;-92
2021/12/21 01:14:14;;;;;;;18.15;7.10;;;-3.20;99.90;;;;;;6194815;23;20024;-92
2021/12/21 01:16:47;;;;;;;20.40;7.53;;;-3.60;99.90;;;;;;6195729;23;20046;-92
2021/12/21 01:22:07;;;;;;;15.82;6.95;;;-3.60;99.90;;;;;;6220522;23;20074;-91
2021/12/21 01:27:08;;;;;;;11.25;6.07;;;-3.60;99.90;;;;;;6220751;23;20066;-94
2021/12/21 01:35:47;;;;;;;16.30;6.70;;;-3.70;99.90;;;;;;6220920;23;20082;-91
2021/12/21 01:38:33;;;;;;;16.60;6.85;;;-3.70;99.90;;;;;;6196035;23;20016;-92
2021/12/21 01:49:51;;;;;;;12.98;6.38;;;-3.60;99.90;;;;;;6222178;23;20078;-91
2021/12/21 01:52:36;;;;;;;14.00;6.30;;;-3.70;99.90;;;;;;6196484;23;20024;-91
2021/12/21 01:55:03;;;;;;;20.25;6.68;;;-3.70;99.90;;;;;;6196756;23;20424;-92
2021/12/21 01:57:28;;;;;;;12.38;6.35;;;-3.90;99.90;;;;;;6196482;23;20016;-92
2021/12/21 02:03:41;;;;;;;17.37;7.07;;;-3.80;99.90;;;;;;6247884;23;20458;-91
2021/12/21 02:06:07;;;;;;;14.65;6.30;;;-3.80;99.90;;;;;;6196339;23;20154;-91
2021/12/21 02:08:33;;;;;;;15.95;6.63;;;-3.80;99.90;;;;;;6221143;23;20016;-92
2021/12/21 02:11:22;;;;;;;11.73;5.75;;;-3.80;99.90;;;;;;6195596;23;20364;-90
2021/12/21 02:20:58;;;;;;;13.80;6.18;;;-3.70;99.90;;;;;;6220694;23;20086;-91
2021/12/21 02:24:27;;;;;;;16.33;6.35;;;-3.90;99.90;;;;;;6221114;23;20019;-91
2021/12/21 03:39:17;;;;;;;16.80;7.13;;;-4.30;99.90;;;;;;6259693;22;20100;-89
2021/12/21 03:41:46;;;;;;;12.98;6.45;;;-4.30;99.90;;;;;;6165042;23;20027;-90
2021/12/21 03:44:19;;;;;;;19.10;6.78;;;-4.30;99.90;;;;;;6217226;23;20059;-88
2021/12/21 03:46:49;;;;;;;14.75;7.20;;;-4.30;99.90;;;;;;6216582;23;20017;-89
2021/12/21 03:52:02;;;;;;;17.10;6.95;;;-4.30;99.90;;;;;;6216891;23;20023;-90
2021/12/21 03:54:28;;;;;;;14.73;7.28;;;-4.40;99.90;;;;;;6216855;23;20023;-89
2021/12/21 03:56:54;;;;;;;16.63;7.22;;;-4.40;99.90;;;;;;6191102;23;20496;-89
2021/12/21 03:59:21;;;;;;;14.15;6.85;;;-3.90;99.90;;;;;;6216357;23;20500;-90
2021/12/21 04:01:48;;;;;;;14.95;7.10;;;-4.20;99.90;;;;;;6191766;23;20016;-89
2021/12/21 04:04:19;;;;;;;12.40;6.65;;;-4.00;99.90;;;;;;6191007;23;20444;-90
2021/12/21 04:06:45;;;;;;;15.25;7.57;;;-4.40;99.90;;;;;;6191133;23;20012;-89
2021/12/21 04:09:14;;;;;;;12.13;7.88;;;-4.20;99.90;;;;;;6162950;23;20341;-89
2021/12/21 04:11:43;;;;;;;12.68;7.30;;;-4.40;99.90;;;;;;6152595;23;20032;-90
2021/12/21 04:14:09;;;;;;;19.13;8.10;;;-3.80;99.90;;;;;;6163178;23;20098;-89
2021/12/21 04:16:35;;;;;;;16.33;7.78;;;-4.40;99.90;;;;;;6186230;23;20360;-90
2021/12/21 04:19:01;;;;;;;18.67;6.97;;;-4.00;99.90;;;;;;6195675;23;20436;-89
2021/12/21 04:21:27;;;;;;;16.92;7.78;;;-4.40;99.90;;;;;;6195765;23;20058;-89
2021/12/21 04:23:52;;;;;;;15.43;7.47;;;-4.30;99.90;;;;;;6195611;23;20020;-89
2021/12/21 04:26:19;;;;;;;15.82;7.20;;;-4.40;99.90;;;;;;6195713;23;20043;-90
2021/12/21 04:28:45;;;;;;;20.25;7.57;;;-4.40;99.90;;;;;;6220373;23;20079;-90
2021/12/21 04:31:11;;;;;;;17.40;7.45;;;-4.40;99.90;;;;;;6220517;23;20328;-89
2021/12/21 04:33:42;;;;;;;13.65;7.57;;;-4.20;99.90;;;;;;6221083;23;20375;-90
2021/12/21 04:36:10;;;;;;;16.60;7.85;;;-4.00;99.90;;;;;;6195424;23;20020;-89
2021/12/21 04:38:39;;;;;;;14.63;7.38;;;-4.50;99.90;;;;;;6194950;23;20016;-89
2021/12/21 04:41:23;;;;;;;17.38;7.45;;;-4.40;99.90;;;;;;6191751;23;20021;-88
2021/12/21 04:43:49;;;;;;;20.80;7.70;;;-4.40;99.90;;;;;;6219891;23;20075;-90
2021/12/21 04:46:15;;;;;;;13.57;6.68;;;-4.40;99.90;;;;;;6195380;23;20020;-88
2021/12/21 04:48:41;;;;;;;17.70;7.43;;;-4.50;99.90;;;;;;6219823;23;20471;-89
2021/12/21 04:51:07;;;;;;;18.17;7.32;;;-4.20;99.90;;;;;;6219606;23;20012;-88
2021/12/21 04:53:33;;;;;;;16.48;7.53;;;-4.50;99.90;;;;;;6220076;23;20019;-89
2021/12/21 04:55:59;;;;;;;14.35;6.55;;;-4.50;99.90;;;;;;6219929;23;20103;-89
2021/12/21 04:58:29;;;;;;;15.40;6.40;;;-4.50;99.90;;;;;;6219383;23;20331;-87
2021/12/21 05:00:55;;;;;;;13.68;6.38;;;-4.60;99.90;;;;;;6219644;23;20008;-88
2021/12/21 05:03:21;;;;;;;17.30;6.70;;;-4.00;99.90;;;;;;6219863;23;20451;-89
2021/12/21 05:05:50;;;;;;;15.15;7.13;;;-4.60;99.90;;;;;;6220025;23;20012;-88
2021/12/21 05:08:20;;;;;;;16.60;7.15;;;-4.40;99.90;;;;;;6220110;23;20047;-89
2021/12/21 05:10:50;;;;;;;14.10;7.22;;;-4.60;99.90;;;;;;6194459;23;20012;-88
2021/12/21 05:13:17;;;;;;;22.57;7.97;;;-4.10;99.90;;;;;;6219825;23;20016;-88
2021/12/21 05:15:43;;;;;;;15.05;7.30;;;-4.30;99.90;;;;;;6219792;23;20614;-89
2021/12/21 05:18:09;;;;;;;18.98;7.07;;;-4.60;99.90;;;;;;6194416;23;20378;-89
2021/12/21 05:20:36;;;;;;;17.75;7.38;;;-4.60;99.90;;;;;;6219749;23;20078;-89
2021/12/21 05:23:02;;;;;;;16.30;7.35;;;-4.30;99.90;;;;;;6220117;23;20370;-89
2021/12/21 05:25:28;;;;;;;16.60;7.43;;;-4.60;99.90;;;;;;6219586;23;20091;-89
2021/12/21 05:27:54;;;;;;;15.00;6.75;;;-4.50;99.90;;;;;;6194332;23;20099;-88
2021/12/21 05:30:22;;;;;;;20.08;7.18;;;-4.60;99.90;;;;;;6219738;23;20387;-89
2021/12/21 05:32:48;;;;;;;17.23;7.25;;;-4.60;99.90;;;;;;6194638;23;20428;-88
2021/12/21 05:35:14;;;;;;;21.02;7.90;;;-4.60;99.90;;;;;;6194599;23;20020;-88
2021/12/21 05:37:41;;;;;;;17.10;7.15;;;-4.60;99.90;;;;;;6194540;23;20381;-88
2021/12/21 05:40:13;;;;;;;20.58;7.95;;;-4.80;99.90;;;;;;6193826;23;20016;-89
2021/12/21 05:42:40;;;;;;;13.90;7.22;;;-4.60;99.90;;;;;;6194442;23;20331;-89
2021/12/21 05:45:07;;;;;;;17.08;7.47;;;-4.50;99.90;;;;;;6194451;23;20110;-90
2021/12/21 05:47:33;;;;;;;16.15;7.53;;;-4.70;99.90;;;;;;6194148;23;20016;-89
2021/12/21 05:49:59;;;;;;;14.93;7.03;;;-4.70;99.90;;;;;;6194631;23;20085;-89
2021/12/21 05:52:25;;;;;;;15.30;7.65;;;-4.60;99.90;;;;;;6194763;23;20359;-88
2021/12/21 05:54:50;;;;;;;18.90;7.35;;;-4.70;99.90;;;;;;6194060;23;20013;-88
2021/12/21 05:57:17;;;;;;;14.32;7.03;;;-4.70;99.90;;;;;;6193703;23;20020;-88
2021/12/21 05:59:42;;;;;;;16.63;7.18;;;-4.70;99.90;;;;;;6194250;23;20020;-88
2021/12/21 06:02:08;;;;;;;14.77;7.60;;;-4.70;99.90;;;;;;6194464;23;20133;-88
2021/12/21 06:04:37;;;;;;;18.58;8.68;;;-4.60;99.90;;;;;;6194141;23;20020;-88
2021/12/21 06:07:03;;;;;;;16.25;7.90;;;-4.70;99.90;;;;;;6219117;23;20020;-88
2021/12/21 06:09:30;;;;;;;18.65;8.10;;;-4.70;99.90;;;;;;6219259;23;20035;-88
2021/12/21 06:12:10;;;;;;;17.45;8.15;;;-4.70;99.90;;;;;;6193925;23;20020;-89
2021/12/21 06:23:18;;;;;;;16.48;7.40;;;-4.80;99.90;;;;;;6157669;23;20016;-88
2021/12/21 06:25:54;;;;;;;14.45;7.75;;;-4.80;99.90;;;;;;6157593;23;20017;-88
2021/12/21 06:28:22;;;;;;;20.50;8.18;;;-4.80;99.90;;;;;;6133105;23;20025;-87
2021/12/21 06:30:49;;;;;;;19.60;8.82;;;-5.00;99.90;;;;;;6157472;23;20075;-88
2021/12/21 06:33:16;;;;;;;17.65;8.88;;;-4.90;99.90;;;;;;6133186;23;20048;-89
2021/12/21 06:35:42;;;;;;;22.65;9.10;;;-4.80;99.90;;;;;;6158076;23;20017;-88
2021/12/21 06:38:08;;;;;;;21.85;8.10;;;-4.80;99.90;;;;;;6132565;23;20499;-89
2021/12/21 06:40:34;;;;;;;17.83;8.88;;;-4.40;99.90;;;;;;6132307;23;20426;-88
2021/12/21 06:43:04;;;;;;;19.65;9.23;;;-4.80;99.90;;;;;;6181227;23;20024;-91
2021/12/21 06:45:45;;;;;;;20.00;8.48;;;-4.40;99.90;;;;;;6157058;23;20079;-88
2021/12/21 06:53:32;;;;;;;17.42;8.80;;;-4.80;99.90;;;;;;6157608;23;20021;-88
2021/12/21 06:55:58;;;;;;;16.45;8.90;;;-4.90;99.90;;;;;;6133034;23;20024;-88
2021/12/21 06:58:24;;;;;;;18.52;8.70;;;-4.80;99.90;;;;;;6218602;23;20343;-87
2021/12/21 07:00:52;;;;;;;19.48;8.65;;;-4.90;99.90;;;;;;6193027;23;20024;-89
2021/12/21 07:03:19;;;;;;;20.23;8.57;;;-4.90;99.90;;;;;;6218726;23;20016;-88
2021/12/21 07:05:50;;;;;;;25.80;9.32;;;-4.90;99.90;;;;;;6193570;23;20444;-88
2021/12/21 07:08:20;;;;;;;16.52;8.45;;;-4.90;99.90;;;;;;6218727;23;20027;-89
2021/12/21 07:11:11;;;;;;;25.95;10.68;;;-4.80;99.90;;;;;;6193252;23;20058;-89
2021/12/21 07:19:01;;;;;;;19.63;9.77;;;-4.90;99.90;;;;;;6220151;23;20082;-89
2021/12/21 07:21:27;;;;;;;19.17;8.93;;;-4.90;99.90;;;;;;6220602;23;20383;-87
2021/12/21 07:23:53;;;;;;;16.48;8.77;;;-4.40;99.90;;;;;;6195523;23;20024;-88
2021/12/21 07:26:21;;;;;;;21.95;9.68;;;-4.60;99.90;;;;;;6220068;23;20329;-88
2021/12/21 07:28:50;;;;;;;20.92;10.15;;;-4.90;99.90;;;;;;6195081;23;20016;-88
2021/12/21 07:31:16;;;;;;;21.02;9.60;;;-4.60;99.90;;;;;;6194646;23;20024;-88
2021/12/21 07:33:41;;;;;;;22.33;10.25;;;-5.00;99.90;;;;;;6219712;23;20109;-90
2021/12/21 07:36:09;;;;;;;21.58;10.48;;;-4.90;99.90;;;;;;6195012;23;20028;-89
2021/12/21 07:38:36;;;;;;;21.30;9.77;;;-4.90;99.90;;;;;;6195030;23;20024;-88
2021/12/21 07:41:03;;;;;;;24.02;10.30;;;-4.90;99.90;;;;;;6194780;23;20028;-89
2021/12/21 07:43:28;;;;;;;23.83;11.13;;;-4.50;99.90;;;;;;6220077;23;20416;-88
2021/12/21 07:45:55;;;;;;;22.58;11.48;;;-5.00;99.90;;;;;;6220385;23;20020;-88
2021/12/21 07:48:21;;;;;;;24.70;12.20;;;-4.90;99.90;;;;;;6194984;23;20020;-90
2021/12/21 07:50:51;;;;;;;24.95;12.25;;;-4.90;99.90;;;;;;6195253;23;20024;-90
2021/12/21 07:53:18;;;;;;;33.15;12.35;;;-4.90;99.90;;;;;;6194829;23;20024;-88
2021/12/21 07:55:49;;;;;;;32.50;12.00;;;-4.90;99.90;;;;;;6195617;23;20519;-88
2021/12/21 07:58:15;;;;;;;23.08;11.80;;;-4.90;99.90;;;;;;6195140;23;20016;-89
2021/12/21 08:00:41;;;;;;;27.98;12.55;;;-4.90;99.90;;;;;;6219733;23;20547;-88
2021/12/21 08:03:07;;;;;;;27.40;12.45;;;-4.90;99.90;;;;;;6194889;23;20024;-90
2021/12/21 08:05:34;;;;;;;27.77;12.30;;;-4.90;99.90;;;;;;6220076;23;20344;-89
2021/12/21 08:08:15;;;;;;;23.75;11.75;;;-4.80;99.90;;;;;;6194961;23;20031;-89
2021/12/21 08:10:49;;;;;;;24.17;12.55;;;-4.80;99.90;;;;;;6194966;23;20016;-89
2021/12/21 08:13:18;;;;;;;25.20;12.88;;;-4.80;99.90;;;;;;6220931;23;20094;-89
2021/12/21 08:15:48;;;;;;;27.02;12.45;;;-4.70;99.90;;;;;;6219835;23;20687;-89
2021/12/21 08:18:36;;;;;;;27.08;12.65;;;-4.80;99.90;;;;;;6220039;23;20127;-89
2021/12/21 08:21:02;;;;;;;29.30;12.82;;;-4.80;99.90;;;;;;6195162;23;20055;-88
2021/12/21 08:23:27;;;;;;;27.42;14.50;;;-4.60;99.90;;;;;;6195090;23;20021;-88
2021/12/21 08:25:54;;;;;;;28.45;13.45;;;-4.60;99.90;;;;;;6219856;23;20348;-89
2021/12/21 08:28:20;;;;;;;31.90;14.38;;;-4.10;99.90;;;;;;6194251;23;20031;-88
2021/12/21 08:30:46;;;;;;;23.67;13.18;;;-4.60;99.90;;;;;;6194681;23;20020;-89
2021/12/21 08:33:12;;;;;;;29.75;13.60;;;-4.50;99.90;;;;;;6194929;23;20331;-88
2021/12/21 08:35:41;;;;;;;26.58;12.57;;;-4.40;99.90;;;;;;6219768;23;20404;-88
2021/12/21 08:38:13;;;;;;;25.60;13.00;;;-4.50;99.90;;;;;;6194935;23;20024;-88
2021/12/21 08:40:40;;;;;;;25.98;13.55;;;-4.40;99.90;;;;;;6194375;23;20024;-89
2021/12/21 08:43:13;;;;;;;29.02;13.63;;;-4.40;99.90;;;;;;6193983;23;20059;-91
2021/12/21 08:45:40;;;;;;;32.38;14.27;;;-4.40;99.90;;;;;;6194557;23;20024;-88
2021/12/21 08:48:10;;;;;;;29.73;14.60;;;-4.40;99.90;;;;;;6194774;23;20024;-89
2021/12/21 08:50:36;;;;;;;29.02;14.48;;;-4.30;99.90;;;;;;6194800;23;20037;-89
2021/12/21 08:53:03;;;;;;;29.58;15.07;;;-4.10;99.90;;;;;;6194750;23;20034;-89
2021/12/21 08:55:28;;;;;;;39.05;18.85;;;-3.80;99.90;;;;;;6219949;23;20407;-88
2021/12/21 08:57:54;;;;;;;31.40;16.65;;;-4.20;99.90;;;;;;6219632;23;20020;-89
2021/12/21 09:00:21;;;;;;;35.15;17.35;;;-3.90;99.90;;;;;;6219724;23;20055;-88
2021/12/21 09:02:50;;;;;;;48.90;19.25;;;-4.00;99.90;;;;;;6219426;23;20023;-89
2021/12/21 09:05:19;;;;;;;33.30;17.85;;;-3.70;99.90;;;;;;6219835;23;20019;-89
2021/12/21 09:07:47;;;;;;;34.45;18.42;;;-3.50;99.90;;;;;;6194697;23;20028;-89
2021/12/21 09:10:18;;;;;;;46.28;21.45;;;-3.30;99.90;;;;;;6194638;23;20016;-89
2021/12/21 09:12:44;;;;;;;35.03;19.90;;;-3.30;99.90;;;;;;6194367;23;20024;-88
2021/12/21 09:15:12;;;;;;;41.20;24.38;;;-2.50;99.90;;;;;;6194546;23;20093;-89
2021/12/21 09:17:40;;;;;;;30.92;18.45;;;-1.50;99.90;;;;;;6194481;23;20027;-89
2021/12/21 09:20:07;;;;;;;35.08;17.65;;;-0.60;99.90;;;;;;6194753;23;20027;-89
2021/12/21 09:22:35;;;;;;;28.67;14.82;;;0.30;99.90;;;;;;6194806;23;20165;-90
2021/12/21 09:25:03;;;;;;;26.83;14.50;;;1.10;99.90;;;;;;6195017;23;20043;-90
2021/12/21 09:27:29;;;;;;;30.98;16.58;;;1.90;99.90;;;;;;6219836;23;20020;-90
2021/12/21 09:30:17;;;;;;;369.58;41.83;;;2.80;99.90;;;;;;6219279;23;20463;-89
2021/12/21 09:32:54;;;;;;;32.78;14.13;;;3.60;99.90;;;;;;6220055;23;20020;-90
2021/12/21 09:35:20;;;;;;;19.15;11.88;;;4.30;99.90;;;;;;6194885;23;20340;-90
2021/12/21 09:37:46;;;;;;;22.60;12.60;;;4.70;99.90;;;;;;6220278;23;20379;-91
2021/12/21 09:40:24;;;;;;;25.20;12.57;;;5.20;99.90;;;;;;6219016;23;20027;-90
2021/12/21 09:42:54;;;;;;;22.90;11.65;;;5.60;99.90;;;;;;6195054;23;20016;-90
2021/12/21 09:46:15;;;;;;;146.63;17.25;;;6.50;99.90;;;;;;6195304;23;20047;-91
2021/12/21 09:48:44;;;;;;;;;;;6.80;99.90;;;;;;6195740;23;20059;-90
2021/12/21 09:51:10;;;;;;;21.98;12.02;;;7.30;99.90;;;;;;6220494;23;20225;-90
2021/12/21 09:53:36;;;;;;;20.20;11.27;;;7.70;99.90;;;;;;6220489;23;20024;-91
2021/12/21 09:56:04;;;;;;;24.25;13.23;;;7.70;99.90;;;;;;6220564;23;20020;-90
2021/12/21 09:58:30;;;;;;;20.63;11.57;;;7.80;99.90;;;;;;6195722;23;20440;-91
2021/12/21 10:00:56;;;;;;;23.88;12.52;;;8.00;99.90;;;;;;6220452;23;20042;-91
2021/12/21 10:03:50;;;;;;;33.00;15.90;;;8.40;99.90;;;;;;6220017;23;20467;-89
2021/12/21 10:06:26;;;;;;;32.50;15.50;;;8.70;99.90;;;;;;6191770;23;20020;-90
2021/12/21 10:13:13;;;;;;;20.83;12.13;;;9.40;99.90;;;;;;6245657;23;20062;-90
2021/12/21 10:19:24;;;;;;;19.93;12.27;;;9.80;99.90;;;;;;6246420;23;20015;-89
2021/12/21 10:21:56;;;;;;;28.35;12.90;;;9.90;99.90;;;;;;6219517;23;20020;-89
2021/12/21 10:24:43;;;;;;;16.92;11.48;;;10.20;99.90;;;;;;6194771;23;20027;-88
2021/12/21 10:27:20;;;;;;;22.15;11.90;;;10.10;99.90;;;;;;6194821;23;20384;-88
2021/12/21 10:29:57;;;;;;;23.25;12.43;;;9.90;99.90;;;;;;6193403;23;20412;-88
2021/12/21 10:32:54;;;;;;;21.02;12.25;;;10.10;99.90;;;;;;6195838;23;20106;-88
2021/12/21 10:35:37;;;;;;;18.48;11.43;;;10.70;99.90;;;;;;6218417;23;20047;-87
2021/12/21 10:38:26;;;;;;;20.08;11.40;;;10.70;99.90;;;;;;6218556;23;20099;-87
2021/12/21 10:40:52;;;;;;;19.17;11.55;;;11.00;99.90;;;;;;6103610;23;20033;-88
2021/12/21 10:43:25;;;;;;;22.23;12.20;;;11.00;99.90;;;;;;6104038;23;20018;-87
2021/12/21 10:45:52;;;;;;;20.08;11.70;;;11.10;99.90;;;;;;6152858;23;20021;-88
2021/12/21 10:48:20;;;;;;;21.98;11.52;;;11.20;99.90;;;;;;6128368;23;20084;-88
2021/12/21 10:50:49;;;;;;;22.90;11.13;;;11.60;99.90;;;;;;6128196;23;20044;-87
2021/12/21 10:53:23;;;;;;;19.08;10.82;;;12.10;99.90;;;;;;6128052;23;20108;-87
2021/12/21 10:56:08;;;;;;;25.02;12.60;;;12.20;99.90;;;;;;6128475;23;20496;-87
2021/12/21 10:58:42;;;;;;;21.08;11.25;;;12.60;99.90;;;;;;6128728;23;20017;-87
2021/12/21 11:01:17;;;;;;;17.25;11.25;;;12.80;98.50;;;;;;6128477;23;20022;-88
2021/12/21 11:03:54;;;;;;;19.45;10.90;;;12.80;97.40;;;;;;6128146;23;20025;-88
2021/12/21 11:06:29;;;;;;;19.92;11.38;;;12.70;97.50;;;;;;6128748;23;20018;-87
2021/12/21 11:08:56;;;;;;;18.85;11.50;;;12.40;96.80;;;;;;6128695;23;20018;-88
2021/12/21 11:11:34;;;;;;;19.77;12.18;;;11.90;97.80;;;;;;6128366;23;20032;-88
2021/12/21 11:17:47;;;;;;;20.00;11.30;;;11.80;96.80;;;;;;6225046;23;20436;-88
2021/12/21 11:20:17;;;;;;;18.05;9.65;;;12.00;96.80;;;;;;6194185;23;20381;-87
2021/12/21 11:22:44;;;;;;;19.73;10.23;;;12.10;94.20;;;;;;6219642;23;20067;-88
2021/12/21 11:25:12;;;;;;;20.55;10.05;;;12.10;92.10;;;;;;6194467;23;20110;-88
2021/12/21 11:27:39;;;;;;;18.85;9.60;;;11.60;91.80;;;;;;6194805;23;20024;-88
2021/12/21 11:30:08;;;;;;;21.13;10.02;;;10.90;92.60;;;;;;6220109;22;20016;-87
2021/12/21 11:32:39;;;;;;;19.80;10.18;;;10.30;93.50;;;;;;6218587;23;20023;-88
2021/12/21 11:37:43;;;;;;;23.70;12.35;;;10.30;96.00;;;;;;6220563;23;20039;-87
2021/12/21 11:40:15;;;;;;;20.27;10.80;;;10.50;95.60;;;;;;6193193;23;20155;-88
2021/12/21 11:42:47;;;;;;;18.50;10.68;;;10.40;95.50;;;;;;6194682;23;20341;-88
2021/12/21 11:45:32;;;;;;;17.58;10.30;;;10.10;95.30;;;;;;6193993;23;20020;-88
2021/12/21 11:48:10;;;;;;;16.90;9.00;;;9.60;96.00;;;;;;6219548;23;20016;-88
2021/12/21 11:50:43;;;;;;;18.70;8.88;;;9.20;97.90;;;;;;6194415;23;20028;-88
2021/12/21 11:53:12;;;;;;;15.98;9.15;;;9.10;98.60;;;;;;6218948;23;20016;-89
2021/12/21 11:55:54;;;;;;;23.00;9.27;;;9.20;99.00;;;;;;6194820;23;20354;-89
2021/12/21 11:58:23;;;;;;;21.10;8.95;;;8.70;99.10;;;;;;6193042;23;20335;-89
2021/12/21 12:00:57;;;;;;;19.38;8.77;;;8.60;99.90;;;;;;6194511;23;20020;-89
2021/12/21 12:03:26;;;;;;;20.13;8.20;;;8.40;99.90;;;;;;6219708;23;20016;-89
2021/12/21 12:05:56;;;;;;;14.77;7.35;;;8.80;99.90;;;;;;6221336;23;20024;-89
2021/12/21 12:08:25;;;;;;;16.63;9.07;;;8.70;99.80;;;;;;6220896;23;20020;-89
2021/12/21 12:11:00;;;;;;;18.98;8.45;;;8.40;99.90;;;;;;6220835;23;20026;-89
2021/12/21 12:13:32;;;;;;;17.30;7.88;;;8.40;99.90;;;;;;6221303;23;20042;-89
2021/12/21 12:16:09;;;;;;;14.20;8.07;;;8.10;99.90;;;;;;6196745;23;20099;-89
2021/12/21 12:18:39;;;;;;;23.42;8.55;;;7.70;99.90;;;;;;6196454;23;20058;-89
2021/12/21 12:21:22;;;;;;;18.02;7.97;;;7.10;99.90;;;;;;6221506;23;20098;-88
2021/12/21 12:23:52;;;;;;;15.93;7.82;;;6.60;99.90;;;;;;6221981;23;20016;-90
2021/12/21 12:26:31;;;;;;;16.87;6.77;;;6.20;99.90;;;;;;6195727;23;20098;-89
2021/12/21 12:32:43;;;;;;;15.15;6.20;;;5.80;99.90;;;;;;6248489;22;20019;-90
2021/12/21 12:35:09;;;;;;;;;;;5.60;99.90;;;;;;6196212;23;20016;-89
2021/12/21 12:37:55;;;;;;;12.20;6.43;;;5.50;99.90;;;;;;6222255;23;19965;-90
2021/12/21 12:40:28;;;;;;;16.77;6.50;;;5.40;99.90;;;;;;6220710;23;20412;-89
2021/12/21 12:42:55;;;;;;;18.52;5.85;;;5.50;99.90;;;;;;6220825;23;20021;-90
2021/12/21 12:49:05;;;;;;;12.53;5.53;;;6.00;99.90;;;;;;6247572;23;20154;-89
2021/12/21 12:51:36;;;;;;;16.35;5.80;;;6.00;99.90;;;;;;6220747;23;20024;-90
2021/12/21 12:54:20;;;;;;;;;;;5.90;99.90;;;;;;6196282;23;20062;-90
2021/12/21 12:56:45;;;;;;;15.73;7.13;;;6.00;99.90;;;;;;6221289;23;19947;-90
2021/12/21 12:59:12;;;;;;;12.88;5.72;;;5.80;99.90;;;;;;6196203;23;20027;-90
2021/12/21 13:01:44;;;;;;;14.30;6.70;;;6.20;99.90;;;;;;6220129;23;20518;-90
2021/12/21 13:04:13;;;;;;;12.43;5.80;;;6.50;99.90;;;;;;6195775;23;20020;-90
2021/12/21 13:06:41;;;;;;;10.40;5.30;;;6.30;99.90;;;;;;6196475;23;20020;-91
2021/12/21 13:09:12;;;;;;;11.25;5.88;;;6.10;99.90;;;;;;6220789;23;20460;-91
2021/12/21 13:11:40;;;;;;;13.57;5.40;;;6.30;99.90;;;;;;6220504;23;20058;-90
2021/12/21 13:14:09;;;;;;;8.05;5.07;;;6.70;99.90;;;;;;6220967;23;20020;-90
2021/12/21 13:16:36;;;;;;;13.43;5.25;;;6.70;99.90;;;;;;6195551;23;20051;-91
2021/12/21 13:19:10;;;;;;;13.73;5.13;;;7.10;99.90;;;;;;6220603;23;20054;-90
2021/12/21 13:21:58;;;;;;;10.02;5.35;;;7.30;99.90;;;;;;6221075;23;20039;-91
2021/12/21 13:24:31;;;;;;;10.15;5.60;;;7.40;99.90;;;;;;6219902;23;20016;-91
2021/12/21 13:27:00;;;;;;;10.95;5.82;;;7.60;99.90;;;;;;6195282;23;20027;-91
2021/12/21 13:33:39;;;;;;;20.13;7.00;;;7.00;99.90;;;;;;6247225;23;20058;-91
2021/12/21 13:36:08;;;;;;;15.35;6.97;;;6.90;99.90;;;;;;6195746;23;20028;-91
2021/12/21 13:38:38;;;;;;;15.05;8.25;;;6.70;99.90;;;;;;6220872;23;20016;-91
2021/12/21 13:41:17;;;;;;;16.02;7.47;;;6.40;99.90;;;;;;6220147;23;20028;-90
2021/12/21 13:44:04;;;;;;;16.15;9.23;;;6.50;99.90;;;;;;6220421;23;20456;-91
2021/12/21 13:46:51;;;;;;;20.65;10.70;;;6.20;99.90;;;;;;6220949;23;20020;-90
2021/12/21 13:49:19;;;;;;;16.77;10.30;;;6.10;99.90;;;;;;6221006;23;20027;-90
2021/12/21 13:51:50;;;;;;;18.95;10.32;;;6.40;99.90;;;;;;6196284;23;20345;-92
2021/12/21 13:54:18;;;;;;;18.23;10.75;;;6.70;99.90;;;;;;6221023;23;20016;-90
2021/12/21 13:56:45;;;;;;;20.63;10.07;;;7.00;99.90;;;;;;6195569;23;20342;-90
2021/12/21 13:59:28;;;;;;;17.80;10.02;;;7.20;99.90;;;;;;6195192;23;20078;-91
2021/12/21 14:01:55;;;;;;;17.13;9.55;;;7.20;99.90;;;;;;6195294;23;20388;-91
2021/12/21 14:04:26;;;;;;;17.70;9.73;;;7.00;99.90;;;;;;6220076;23;20020;-91
2021/12/21 14:06:54;;;;;;;19.40;9.93;;;6.90;99.90;;;;;;6220902;23;20022;-92
2021/12/21 14:09:23;;;;;;;19.75;10.57;;;7.10;99.90;;;;;;6220406;23;20028;-91
2021/12/21 14:11:54;;;;;;;15.77;9.50;;;7.00;99.90;;;;;;6220306;23;20016;-91
2021/12/21 14:14:21;;;;;;;16.75;9.52;;;7.20;99.90;;;;;;6220763;23;20016;-92
2021/12/21 14:16:49;;;;;;;17.98;9.57;;;7.30;99.90;;;;;;6220720;23;20095;-91
2021/12/21 14:19:18;;;;;;;18.42;10.82;;;7.50;99.90;;;;;;6219932;23;20375;-91
2021/12/21 14:21:50;;;;;;;26.45;13.27;;;7.70;99.90;;;;;;6220455;23;20104;-91
2021/12/21 14:24:20;;;;;;;24.27;12.73;;;7.90;99.90;;;;;;6195289;23;20075;-91
2021/12/21 14:26:48;;;;;;;53.55;23.67;;;8.00;99.90;;;;;;6220448;23;20020;-92
2021/12/21 14:36:23;;;;;;;43.38;19.25;;;6.60;99.90;;;;;;6246837;23;20459;-91
2021/12/21 14:38:50;;;;;;;51.63;19.33;;;5.70;99.90;;;;;;6219925;23;20016;-91
2021/12/21 14:41:26;;;;;;;62.22;20.73;;;5.10;99.90;;;;;;6216262;23;20028;-92
2021/12/21 14:44:01;;;;;;;86.18;21.75;;;4.70;99.90;;;;;;6220159;23;20024;-92
2021/12/21 14:47:01;;;;;;;52.70;16.42;;;4.20;99.90;;;;;;6220061;23;20016;-91
2021/12/21 14:49:28;;;;;;;96.32;28.67;;;3.80;99.90;;;;;;6195290;23;20050;-91
2021/12/21 14:52:00;;;;;;;112.22;29.90;;;3.40;99.90;;;;;;6219966;23;20038;-92
2021/12/21 14:54:30;;;;;;;242.15;68.38;;;3.20;99.90;;;;;;6219932;23;20463;-93
2021/12/21 14:57:07;;;;;;;82.00;27.33;;;2.80;99.90;;;;;;6195380;23;20086;-92
2021/12/21 14:59:37;;;;;;;96.57;31.55;;;2.60;99.90;;;;;;6220025;23;20358;-92
2021/12/21 15:02:49;;;;;;;155.82;46.83;;;2.40;99.90;;;;;;6194535;23;20020;-92
2021/12/21 15:05:14;;;;;;;115.88;36.88;;;1.90;99.90;;;;;;6219193;23;20028;-92
2021/12/21 15:07:40;;;;;;;86.00;30.65;;;1.90;99.90;;;;;;6194328;23;20313;-91
2021/12/21 15:10:07;;;;;;;108.15;36.22;;;1.80;99.90;;;;;;6195063;23;20447;-93
2021/12/21 15:12:34;;;;;;;48.15;22.40;;;1.50;99.90;;;;;;6219834;23;20444;-92
2021/12/21 15:18:40;;;;;;;38.13;17.08;;;1.10;99.90;;;;;;6246879;23;20039;-91
2021/12/21 15:21:06;;;;;;;38.47;18.75;;;0.90;99.90;;;;;;6195362;23;20020;-92
2021/12/21 15:23:34;;;;;;;32.40;16.40;;;0.80;99.90;;;;;;6220518;23;20028;-91
2021/12/21 15:25:59;;;;;;;33.65;16.02;;;0.60;99.90;;;;;;6220498;23;20099;-90
2021/12/21 15:28:25;;;;;;;37.08;17.42;;;0.50;99.90;;;;;;6219770;23;20419;-93
2021/12/21 15:30:51;;;;;;;32.40;17.05;;;0.40;99.90;;;;;;6219734;23;20518;-91
2021/12/21 15:33:17;;;;;;;31.05;15.07;;;0.30;99.90;;;;;;6195143;23;20028;-91
2021/12/21 15:35:43;;;;;;;31.08;15.05;;;0.40;99.90;;;;;;6220145;23;20021;-92
2021/12/21 15:38:11;;;;;;;35.88;15.95;;;0.00;99.90;;;;;;6195051;23;20348;-91
2021/12/21 15:40:38;;;;;;;31.80;16.75;;;-0.10;99.90;;;;;;6197338;23;20031;-92
2021/12/21 15:43:06;;;;;;;29.60;15.52;;;-0.10;99.90;;;;;;6197338;23;20023;-92